sensor_id;sensor_type;location;lat;lon;timestamp;P1;durP1;ratioP1;P2;durP2;ratioP2
19828;SDS011;10075;50.924;4.396;2023-02-04T00:01:56;17.17;;;10.30;;
19828;SDS011;10075;50.924;4.396;2023-02-04T00:04:23;18.17;;;10.70;;
19828;SDS011;10075;50.924;4.396;2023-02-04T00:06:50;17.00;;;9.93;;
19828;SDS011;10075;50.924;4.396;2023-02-04T00:09:17;19.50;;;10.97;;
19828;SDS011;10075;50.924;4.396;2023-02-04T00:11:45;18.47;;;11.73;;
19828;SDS011;10075;50.924;4.396;2023-02-04T00:14:12;18.00;;;11.43;;
19828;SDS011;10075;50.924;4.396;2023-02-04T00:16:39;22.53;;;12.17;;
19828;SDS011;10075;50.924;4.396;2023-02-04T00:19:06;21.73;;;11.50;;
19828;SDS011;10075;50.924;4.396;2023-02-04T00:21:33;21.40;;;12.53;;
19828;SDS011;10075;50.924;4.396;2023-02-04T00:24:00;19.70;;;12.53;;
19828;SDS011;10075;50.924;4.396;2023-02-04T00:26:28;26.30;;;12.27;;
19828;SDS011;10075;50.924;4.396;2023-02-04T00:28:56;27.97;;;14.77;;
19828;SDS011;10075;50.924;4.396;2023-02-04T00:31:23;25.03;;;14.37;;
19828;SDS011;10075;50.924;4.396;2023-02-04T00:33:50;19.47;;;12.77;;
19828;SDS011;10075;50.924;4.396;2023-02-04T00:36:17;21.27;;;12.27;;
19828;SDS011;10075;50.924;4.396;2023-02-04T00:38:44;20.03;;;13.07;;
19828;SDS011;10075;50.924;4.396;2023-02-04T00:41:11;23.33;;;13.33;;
19828;SDS011;10075;50.924;4.396;2023-02-04T00:43:38;22.47;;;13.53;;
19828;SDS011;10075;50.924;4.396;2023-02-04T00:46:06;22.93;;;13.67;;
19828;SDS011;10075;50.924;4.396;2023-02-04T00:48:33;26.17;;;15.50;;
19828;SDS011;10075;50.924;4.396;2023-02-04T00:51:00;26.57;;;14.37;;
19828;SDS011;10075;50.924;4.396;2023-02-04T00:53:27;21.80;;;15.47;;
19828;SDS011;10075;50.924;4.396;2023-02-04T00:55:54;29.23;;;14.63;;
19828;SDS011;10075;50.924;4.396;2023-02-04T00:58:21;24.27;;;15.00;;
19828;SDS011;10075;50.924;4.396;2023-02-04T01:00:48;22.53;;;15.90;;
19828;SDS011;10075;50.924;4.396;2023-02-04T01:03:17;24.03;;;15.47;;
19828;SDS011;10075;50.924;4.396;2023-02-04T01:05:44;27.07;;;15.77;;
19828;SDS011;10075;50.924;4.396;2023-02-04T01:08:11;24.50;;;14.83;;
19828;SDS011;10075;50.924;4.396;2023-02-04T01:10:38;24.17;;;15.40;;
19828;SDS011;10075;50.924;4.396;2023-02-04T01:13:05;27.67;;;15.57;;
19828;SDS011;10075;50.924;4.396;2023-02-04T01:15:33;31.50;;;16.70;;
19828;SDS011;10075;50.924;4.396;2023-02-04T01:18:00;27.00;;;16.10;;
19828;SDS011;10075;50.924;4.396;2023-02-04T01:20:28;23.97;;;14.87;;
19828;SDS011;10075;50.924;4.396;2023-02-04T01:22:55;26.13;;;15.53;;
19828;SDS011;10075;50.924;4.396;2023-02-04T01:25:22;34.17;;;15.90;;
19828;SDS011;10075;50.924;4.396;2023-02-04T01:27:49;29.93;;;16.27;;
19828;SDS011;10075;50.924;4.396;2023-02-04T01:30:16;24.57;;;14.57;;
19828;SDS011;10075;50.924;4.396;2023-02-04T01:32:43;34.17;;;17.17;;
19828;SDS011;10075;50.924;4.396;2023-02-04T01:35:11;30.83;;;16.00;;
19828;SDS011;10075;50.924;4.396;2023-02-04T01:37:39;32.10;;;16.67;;
19828;SDS011;10075;50.924;4.396;2023-02-04T01:40:06;31.83;;;18.57;;
19828;SDS011;10075;50.924;4.396;2023-02-04T01:42:34;34.77;;;17.97;;
19828;SDS011;10075;50.924;4.396;2023-02-04T01:45:01;37.10;;;18.17;;
19828;SDS011;10075;50.924;4.396;2023-02-04T01:47:30;31.07;;;16.93;;
19828;SDS011;10075;50.924;4.396;2023-02-04T01:49:57;37.87;;;18.63;;
19828;SDS011;10075;50.924;4.396;2023-02-04T01:52:24;35.27;;;18.37;;
19828;SDS011;10075;50.924;4.396;2023-02-04T01:54:54;34.73;;;17.67;;
19828;SDS011;10075;50.924;4.396;2023-02-04T01:57:21;33.57;;;17.37;;
19828;SDS011;10075;50.924;4.396;2023-02-04T01:59:49;34.27;;;20.17;;
19828;SDS011;10075;50.924;4.396;2023-02-04T02:02:39;41.77;;;19.93;;
19828;SDS011;10075;50.924;4.396;2023-02-04T02:05:08;29.77;;;18.30;;
19828;SDS011;10075;50.924;4.396;2023-02-04T02:07:37;37.73;;;21.17;;
19828;SDS011;10075;50.924;4.396;2023-02-04T02:10:07;32.90;;;18.90;;
19828;SDS011;10075;50.924;4.396;2023-02-04T02:12:36;38.80;;;19.67;;
19828;SDS011;10075;50.924;4.396;2023-02-04T02:15:03;37.03;;;19.23;;
19828;SDS011;10075;50.924;4.396;2023-02-04T02:17:31;44.30;;;22.60;;
19828;SDS011;10075;50.924;4.396;2023-02-04T02:19:58;51.07;;;25.87;;
19828;SDS011;10075;50.924;4.396;2023-02-04T02:22:27;52.33;;;25.07;;
19828;SDS011;10075;50.924;4.396;2023-02-04T02:24:58;51.57;;;23.80;;
19828;SDS011;10075;50.924;4.396;2023-02-04T02:27:25;47.93;;;24.10;;
19828;SDS011;10075;50.924;4.396;2023-02-04T02:29:52;62.40;;;26.23;;
19828;SDS011;10075;50.924;4.396;2023-02-04T02:32:20;73.00;;;29.20;;
19828;SDS011;10075;50.924;4.396;2023-02-04T02:34:47;59.97;;;26.83;;
19828;SDS011;10075;50.924;4.396;2023-02-04T02:37:14;72.63;;;28.73;;
19828;SDS011;10075;50.924;4.396;2023-02-04T02:39:41;68.63;;;28.60;;
19828;SDS011;10075;50.924;4.396;2023-02-04T02:42:13;62.70;;;28.97;;
19828;SDS011;10075;50.924;4.396;2023-02-04T02:44:42;68.00;;;30.13;;
19828;SDS011;10075;50.924;4.396;2023-02-04T02:47:11;56.33;;;27.77;;
19828;SDS011;10075;50.924;4.396;2023-02-04T02:49:40;56.20;;;28.70;;
19828;SDS011;10075;50.924;4.396;2023-02-04T02:52:08;62.57;;;30.90;;
19828;SDS011;10075;50.924;4.396;2023-02-04T02:54:36;103.97;;;36.40;;
19828;SDS011;10075;50.924;4.396;2023-02-04T02:57:07;77.77;;;33.60;;
19828;SDS011;10075;50.924;4.396;2023-02-04T02:59:39;73.10;;;33.43;;
19828;SDS011;10075;50.924;4.396;2023-02-04T03:02:07;56.90;;;30.63;;
19828;SDS011;10075;50.924;4.396;2023-02-04T03:04:37;59.30;;;30.57;;
19828;SDS011;10075;50.924;4.396;2023-02-04T03:07:07;62.40;;;29.77;;
19828;SDS011;10075;50.924;4.396;2023-02-04T03:09:35;58.40;;;26.80;;
19828;SDS011;10075;50.924;4.396;2023-02-04T03:12:02;53.13;;;24.97;;
19828;SDS011;10075;50.924;4.396;2023-02-04T03:14:31;48.53;;;23.17;;
19828;SDS011;10075;50.924;4.396;2023-02-04T03:17:00;59.93;;;27.40;;
19828;SDS011;10075;50.924;4.396;2023-02-04T03:19:29;61.20;;;24.80;;
19828;SDS011;10075;50.924;4.396;2023-02-04T03:21:56;51.97;;;24.40;;
19828;SDS011;10075;50.924;4.396;2023-02-04T03:24:25;54.23;;;24.63;;
19828;SDS011;10075;50.924;4.396;2023-02-04T03:26:52;62.40;;;25.73;;
19828;SDS011;10075;50.924;4.396;2023-02-04T03:29:19;62.50;;;25.93;;
19828;SDS011;10075;50.924;4.396;2023-02-04T03:31:46;51.30;;;24.07;;
19828;SDS011;10075;50.924;4.396;2023-02-04T03:34:15;51.43;;;24.43;;
19828;SDS011;10075;50.924;4.396;2023-02-04T03:36:42;52.77;;;23.07;;
19828;SDS011;10075;50.924;4.396;2023-02-04T03:39:09;53.77;;;23.27;;
19828;SDS011;10075;50.924;4.396;2023-02-04T03:41:36;53.70;;;23.27;;
19828;SDS011;10075;50.924;4.396;2023-02-04T03:44:03;51.93;;;22.20;;
19828;SDS011;10075;50.924;4.396;2023-02-04T03:46:30;46.77;;;22.10;;
19828;SDS011;10075;50.924;4.396;2023-02-04T03:48:57;57.10;;;23.60;;
19828;SDS011;10075;50.924;4.396;2023-02-04T03:51:25;60.10;;;23.27;;
19828;SDS011;10075;50.924;4.396;2023-02-04T03:53:52;48.20;;;22.80;;
19828;SDS011;10075;50.924;4.396;2023-02-04T03:56:19;51.77;;;22.67;;
19828;SDS011;10075;50.924;4.396;2023-02-04T03:58:46;58.53;;;24.30;;
19828;SDS011;10075;50.924;4.396;2023-02-04T04:01:13;69.57;;;23.73;;
19828;SDS011;10075;50.924;4.396;2023-02-04T04:03:44;70.80;;;24.67;;
19828;SDS011;10075;50.924;4.396;2023-02-04T04:06:11;57.50;;;24.27;;
19828;SDS011;10075;50.924;4.396;2023-02-04T04:08:39;49.00;;;20.70;;
19828;SDS011;10075;50.924;4.396;2023-02-04T04:11:06;52.60;;;22.10;;
19828;SDS011;10075;50.924;4.396;2023-02-04T04:13:33;61.20;;;23.00;;
19828;SDS011;10075;50.924;4.396;2023-02-04T04:16:00;52.47;;;21.97;;
19828;SDS011;10075;50.924;4.396;2023-02-04T04:18:29;46.13;;;19.93;;
19828;SDS011;10075;50.924;4.396;2023-02-04T04:20:56;57.93;;;21.67;;
19828;SDS011;10075;50.924;4.396;2023-02-04T04:23:23;78.47;;;24.23;;
19828;SDS011;10075;50.924;4.396;2023-02-04T04:25:52;81.80;;;24.70;;
19828;SDS011;10075;50.924;4.396;2023-02-04T04:28:19;55.37;;;19.90;;
19828;SDS011;10075;50.924;4.396;2023-02-04T04:30:46;55.23;;;19.13;;
19828;SDS011;10075;50.924;4.396;2023-02-04T04:33:13;43.50;;;17.87;;
19828;SDS011;10075;50.924;4.396;2023-02-04T04:35:40;65.93;;;21.93;;
19828;SDS011;10075;50.924;4.396;2023-02-04T04:38:07;66.17;;;21.17;;
19828;SDS011;10075;50.924;4.396;2023-02-04T04:40:34;57.17;;;20.33;;
19828;SDS011;10075;50.924;4.396;2023-02-04T04:43:02;59.63;;;22.13;;
19828;SDS011;10075;50.924;4.396;2023-02-04T04:45:29;51.53;;;20.60;;
19828;SDS011;10075;50.924;4.396;2023-02-04T04:47:56;59.30;;;20.50;;
19828;SDS011;10075;50.924;4.396;2023-02-04T04:50:23;64.53;;;21.17;;
19828;SDS011;10075;50.924;4.396;2023-02-04T04:52:50;64.13;;;21.07;;
19828;SDS011;10075;50.924;4.396;2023-02-04T04:55:17;63.20;;;21.13;;
19828;SDS011;10075;50.924;4.396;2023-02-04T04:57:44;73.40;;;23.13;;
19828;SDS011;10075;50.924;4.396;2023-02-04T05:00:15;40.70;;;17.87;;
19828;SDS011;10075;50.924;4.396;2023-02-04T05:02:43;72.27;;;23.63;;
19828;SDS011;10075;50.924;4.396;2023-02-04T05:05:11;79.10;;;23.43;;
19828;SDS011;10075;50.924;4.396;2023-02-04T05:07:38;50.33;;;20.20;;
19828;SDS011;10075;50.924;4.396;2023-02-04T05:10:05;43.47;;;19.60;;
19828;SDS011;10075;50.924;4.396;2023-02-04T05:12:33;57.27;;;22.37;;
19828;SDS011;10075;50.924;4.396;2023-02-04T05:15:00;34.63;;;17.63;;
19828;SDS011;10075;50.924;4.396;2023-02-04T05:17:29;70.63;;;23.27;;
19828;SDS011;10075;50.924;4.396;2023-02-04T05:19:56;59.67;;;20.40;;
19828;SDS011;10075;50.924;4.396;2023-02-04T05:22:23;66.63;;;23.83;;
19828;SDS011;10075;50.924;4.396;2023-02-04T05:24:50;70.07;;;23.77;;
19828;SDS011;10075;50.924;4.396;2023-02-04T05:27:17;72.53;;;25.30;;
19828;SDS011;10075;50.924;4.396;2023-02-04T05:29:44;60.70;;;22.93;;
19828;SDS011;10075;50.924;4.396;2023-02-04T05:32:11;79.90;;;25.47;;
19828;SDS011;10075;50.924;4.396;2023-02-04T05:34:39;81.00;;;26.30;;
19828;SDS011;10075;50.924;4.396;2023-02-04T05:37:06;78.67;;;26.20;;
19828;SDS011;10075;50.924;4.396;2023-02-04T05:39:33;94.97;;;28.23;;
19828;SDS011;10075;50.924;4.396;2023-02-04T05:42:00;95.70;;;29.73;;
19828;SDS011;10075;50.924;4.396;2023-02-04T05:44:27;91.23;;;30.60;;
19828;SDS011;10075;50.924;4.396;2023-02-04T05:46:54;107.57;;;31.57;;
19828;SDS011;10075;50.924;4.396;2023-02-04T05:49:21;53.93;;;23.17;;
19828;SDS011;10075;50.924;4.396;2023-02-04T05:51:50;62.67;;;22.23;;
19828;SDS011;10075;50.924;4.396;2023-02-04T05:54:17;130.83;;;31.30;;
19828;SDS011;10075;50.924;4.396;2023-02-04T05:56:44;64.67;;;23.47;;
19828;SDS011;10075;50.924;4.396;2023-02-04T05:59:12;108.30;;;30.07;;
19828;SDS011;10075;50.924;4.396;2023-02-04T06:01:39;112.63;;;29.83;;
19828;SDS011;10075;50.924;4.396;2023-02-04T06:04:06;80.20;;;26.57;;
19828;SDS011;10075;50.924;4.396;2023-02-04T06:06:33;56.67;;;23.93;;
19828;SDS011;10075;50.924;4.396;2023-02-04T06:09:01;94.07;;;29.63;;
19828;SDS011;10075;50.924;4.396;2023-02-04T06:11:29;89.10;;;27.43;;
19828;SDS011;10075;50.924;4.396;2023-02-04T06:13:55;55.30;;;22.07;;
19828;SDS011;10075;50.924;4.396;2023-02-04T06:16:23;116.37;;;31.20;;
19828;SDS011;10075;50.924;4.396;2023-02-04T06:18:50;135.20;;;32.40;;
19828;SDS011;10075;50.924;4.396;2023-02-04T06:21:17;123.67;;;30.87;;
19828;SDS011;10075;50.924;4.396;2023-02-04T06:23:44;87.07;;;28.50;;
19828;SDS011;10075;50.924;4.396;2023-02-04T06:26:13;84.40;;;27.13;;
19828;SDS011;10075;50.924;4.396;2023-02-04T06:28:39;139.80;;;33.50;;
19828;SDS011;10075;50.924;4.396;2023-02-04T06:31:06;68.80;;;25.13;;
19828;SDS011;10075;50.924;4.396;2023-02-04T06:33:34;82.90;;;26.60;;
19828;SDS011;10075;50.924;4.396;2023-02-04T06:36:01;83.83;;;28.63;;
19828;SDS011;10075;50.924;4.396;2023-02-04T06:38:29;96.30;;;30.67;;
19828;SDS011;10075;50.924;4.396;2023-02-04T06:40:56;104.57;;;31.60;;
19828;SDS011;10075;50.924;4.396;2023-02-04T06:43:25;101.70;;;30.37;;
19828;SDS011;10075;50.924;4.396;2023-02-04T06:45:52;84.03;;;29.23;;
19828;SDS011;10075;50.924;4.396;2023-02-04T06:48:19;78.87;;;27.87;;
19828;SDS011;10075;50.924;4.396;2023-02-04T06:50:47;108.90;;;32.20;;
19828;SDS011;10075;50.924;4.396;2023-02-04T06:53:14;119.97;;;33.40;;
19828;SDS011;10075;50.924;4.396;2023-02-04T06:55:41;132.53;;;35.40;;
19828;SDS011;10075;50.924;4.396;2023-02-04T06:58:08;144.20;;;35.93;;
19828;SDS011;10075;50.924;4.396;2023-02-04T07:00:36;134.07;;;36.77;;
19828;SDS011;10075;50.924;4.396;2023-02-04T07:03:03;143.67;;;36.20;;
19828;SDS011;10075;50.924;4.396;2023-02-04T07:05:31;126.07;;;35.40;;
19828;SDS011;10075;50.924;4.396;2023-02-04T07:07:58;123.43;;;36.03;;
19828;SDS011;10075;50.924;4.396;2023-02-04T07:10:25;98.87;;;32.43;;
19828;SDS011;10075;50.924;4.396;2023-02-04T07:12:52;91.33;;;31.80;;
19828;SDS011;10075;50.924;4.396;2023-02-04T07:15:19;107.13;;;33.23;;
19828;SDS011;10075;50.924;4.396;2023-02-04T07:17:48;109.33;;;33.90;;
19828;SDS011;10075;50.924;4.396;2023-02-04T07:20:15;127.33;;;35.77;;
19828;SDS011;10075;50.924;4.396;2023-02-04T07:22:42;89.87;;;31.13;;
19828;SDS011;10075;50.924;4.396;2023-02-04T07:25:09;118.17;;;35.47;;
19828;SDS011;10075;50.924;4.396;2023-02-04T07:27:39;99.23;;;32.03;;
19828;SDS011;10075;50.924;4.396;2023-02-04T07:30:07;111.17;;;32.80;;
19828;SDS011;10075;50.924;4.396;2023-02-04T07:32:34;201.37;;;41.80;;
19828;SDS011;10075;50.924;4.396;2023-02-04T07:35:03;110.83;;;31.70;;
19828;SDS011;10075;50.924;4.396;2023-02-04T07:37:30;104.27;;;30.50;;
19828;SDS011;10075;50.924;4.396;2023-02-04T07:39:57;90.63;;;30.50;;
19828;SDS011;10075;50.924;4.396;2023-02-04T07:42:24;66.30;;;27.20;;
19828;SDS011;10075;50.924;4.396;2023-02-04T07:44:52;215.17;;;44.87;;
19828;SDS011;10075;50.924;4.396;2023-02-04T07:47:19;163.27;;;37.83;;
19828;SDS011;10075;50.924;4.396;2023-02-04T07:49:46;126.90;;;34.90;;
19828;SDS011;10075;50.924;4.396;2023-02-04T07:52:14;105.77;;;34.67;;
19828;SDS011;10075;50.924;4.396;2023-02-04T07:54:41;97.40;;;32.97;;
19828;SDS011;10075;50.924;4.396;2023-02-04T07:57:08;90.10;;;32.47;;
19828;SDS011;10075;50.924;4.396;2023-02-04T07:59:35;260.80;;;46.47;;
19828;SDS011;10075;50.924;4.396;2023-02-04T08:02:02;156.90;;;38.23;;
19828;SDS011;10075;50.924;4.396;2023-02-04T08:04:29;96.50;;;30.87;;
19828;SDS011;10075;50.924;4.396;2023-02-04T08:06:56;87.23;;;29.43;;
19828;SDS011;10075;50.924;4.396;2023-02-04T08:09:24;105.70;;;30.80;;
19828;SDS011;10075;50.924;4.396;2023-02-04T08:11:51;101.57;;;31.60;;
19828;SDS011;10075;50.924;4.396;2023-02-04T08:14:18;136.07;;;32.80;;
19828;SDS011;10075;50.924;4.396;2023-02-04T08:16:46;94.87;;;32.17;;
19828;SDS011;10075;50.924;4.396;2023-02-04T08:19:13;97.03;;;29.13;;
19828;SDS011;10075;50.924;4.396;2023-02-04T08:21:43;99.20;;;29.07;;
19828;SDS011;10075;50.924;4.396;2023-02-04T08:24:10;70.23;;;32.30;;
19828;SDS011;10075;50.924;4.396;2023-02-04T08:26:38;69.20;;;27.37;;
19828;SDS011;10075;50.924;4.396;2023-02-04T08:29:05;64.70;;;24.93;;
19828;SDS011;10075;50.924;4.396;2023-02-04T08:31:33;79.50;;;27.40;;
19828;SDS011;10075;50.924;4.396;2023-02-04T08:34:00;73.03;;;25.93;;
19828;SDS011;10075;50.924;4.396;2023-02-04T08:36:27;47.30;;;21.97;;
19828;SDS011;10075;50.924;4.396;2023-02-04T08:38:55;37.10;;;16.97;;
19828;SDS011;10075;50.924;4.396;2023-02-04T08:41:22;55.37;;;19.70;;
19828;SDS011;10075;50.924;4.396;2023-02-04T08:43:50;41.93;;;18.20;;
19828;SDS011;10075;50.924;4.396;2023-02-04T08:46:17;34.37;;;14.80;;
19828;SDS011;10075;50.924;4.396;2023-02-04T08:48:44;23.53;;;11.57;;
19828;SDS011;10075;50.924;4.396;2023-02-04T08:51:11;14.37;;;7.63;;
19828;SDS011;10075;50.924;4.396;2023-02-04T08:53:38;16.30;;;8.90;;
19828;SDS011;10075;50.924;4.396;2023-02-04T08:56:05;14.83;;;8.20;;
19828;SDS011;10075;50.924;4.396;2023-02-04T08:58:33;17.13;;;9.70;;
19828;SDS011;10075;50.924;4.396;2023-02-04T09:01:01;29.97;;;12.87;;
19828;SDS011;10075;50.924;4.396;2023-02-04T09:03:28;39.03;;;15.70;;
19828;SDS011;10075;50.924;4.396;2023-02-04T09:05:56;17.97;;;7.43;;
19828;SDS011;10075;50.924;4.396;2023-02-04T09:08:23;16.67;;;5.53;;
19828;SDS011;10075;50.924;4.396;2023-02-04T09:10:50;14.20;;;5.10;;
19828;SDS011;10075;50.924;4.396;2023-02-04T09:13:17;14.67;;;4.43;;
19828;SDS011;10075;50.924;4.396;2023-02-04T09:15:44;11.37;;;4.27;;
19828;SDS011;10075;50.924;4.396;2023-02-04T09:18:12;12.83;;;3.83;;
19828;SDS011;10075;50.924;4.396;2023-02-04T09:20:41;13.97;;;4.00;;
19828;SDS011;10075;50.924;4.396;2023-02-04T09:23:08;12.70;;;3.93;;
19828;SDS011;10075;50.924;4.396;2023-02-04T09:25:36;13.07;;;3.67;;
19828;SDS011;10075;50.924;4.396;2023-02-04T09:28:04;11.03;;;3.90;;
19828;SDS011;10075;50.924;4.396;2023-02-04T09:30:34;13.33;;;4.07;;
19828;SDS011;10075;50.924;4.396;2023-02-04T09:33:01;11.57;;;4.33;;
19828;SDS011;10075;50.924;4.396;2023-02-04T09:35:29;12.97;;;4.43;;
19828;SDS011;10075;50.924;4.396;2023-02-04T09:37:56;12.83;;;4.47;;
19828;SDS011;10075;50.924;4.396;2023-02-04T09:40:23;9.57;;;4.20;;
19828;SDS011;10075;50.924;4.396;2023-02-04T09:42:53;12.20;;;4.40;;
19828;SDS011;10075;50.924;4.396;2023-02-04T09:45:21;11.57;;;4.43;;
19828;SDS011;10075;50.924;4.396;2023-02-04T09:47:50;11.07;;;4.43;;
19828;SDS011;10075;50.924;4.396;2023-02-04T09:50:20;10.73;;;4.80;;
19828;SDS011;10075;50.924;4.396;2023-02-04T09:52:52;11.77;;;4.50;;
19828;SDS011;10075;50.924;4.396;2023-02-04T09:55:24;14.33;;;6.17;;
19828;SDS011;10075;50.924;4.396;2023-02-04T09:57:54;10.43;;;5.30;;
19828;SDS011;10075;50.924;4.396;2023-02-04T10:00:22;15.37;;;6.17;;
19828;SDS011;10075;50.924;4.396;2023-02-04T10:02:54;15.70;;;7.13;;
19828;SDS011;10075;50.924;4.396;2023-02-04T10:05:26;12.87;;;6.50;;
19828;SDS011;10075;50.924;4.396;2023-02-04T10:07:55;14.57;;;7.23;;
19828;SDS011;10075;50.924;4.396;2023-02-04T10:10:24;13.77;;;6.87;;
19828;SDS011;10075;50.924;4.396;2023-02-04T10:12:54;14.83;;;7.00;;
19828;SDS011;10075;50.924;4.396;2023-02-04T10:15:23;13.30;;;8.43;;
19828;SDS011;10075;50.924;4.396;2023-02-04T10:17:51;19.57;;;9.23;;
19828;SDS011;10075;50.924;4.396;2023-02-04T10:20:21;26.00;;;9.77;;
19828;SDS011;10075;50.924;4.396;2023-02-04T10:22:50;20.27;;;9.40;;
19828;SDS011;10075;50.924;4.396;2023-02-04T10:25:21;29.33;;;12.60;;
19828;SDS011;10075;50.924;4.396;2023-02-04T10:27:50;31.43;;;13.07;;
19828;SDS011;10075;50.924;4.396;2023-02-04T10:30:19;23.30;;;12.60;;
19828;SDS011;10075;50.924;4.396;2023-02-04T10:32:48;32.80;;;15.77;;
19828;SDS011;10075;50.924;4.396;2023-02-04T10:35:16;25.87;;;13.00;;
19828;SDS011;10075;50.924;4.396;2023-02-04T10:37:45;28.47;;;14.73;;
19828;SDS011;10075;50.924;4.396;2023-02-04T10:40:26;18.90;;;10.10;;
19828;SDS011;10075;50.924;4.396;2023-02-04T10:42:55;19.07;;;10.87;;
19828;SDS011;10075;50.924;4.396;2023-02-04T10:45:23;25.43;;;12.97;;
19828;SDS011;10075;50.924;4.396;2023-02-04T10:47:52;26.67;;;16.23;;
19828;SDS011;10075;50.924;4.396;2023-02-04T10:50:21;13.73;;;9.07;;
19828;SDS011;10075;50.924;4.396;2023-02-04T10:52:50;13.53;;;8.60;;
19828;SDS011;10075;50.924;4.396;2023-02-04T10:55:41;10.57;;;7.13;;
19828;SDS011;10075;50.924;4.396;2023-02-04T10:58:10;11.53;;;7.63;;
19828;SDS011;10075;50.924;4.396;2023-02-04T11:00:40;12.43;;;7.40;;
19828;SDS011;10075;50.924;4.396;2023-02-04T11:03:09;9.13;;;6.20;;
19828;SDS011;10075;50.924;4.396;2023-02-04T11:05:39;14.70;;;8.97;;
19828;SDS011;10075;50.924;4.396;2023-02-04T11:08:17;8.57;;;6.00;;
19828;SDS011;10075;50.924;4.396;2023-02-04T11:10:50;8.45;;;5.78;;
19828;SDS011;10075;50.924;4.396;2023-02-04T11:13:22;7.60;;;5.93;;
19828;SDS011;10075;50.924;4.396;2023-02-04T11:15:54;5.87;;;5.13;;
19828;SDS011;10075;50.924;4.396;2023-02-04T11:18:42;7.73;;;5.77;;
19828;SDS011;10075;50.924;4.396;2023-02-04T11:21:20;7.93;;;5.93;;
19828;SDS011;10075;50.924;4.396;2023-02-04T11:23:49;8.63;;;6.17;;
19828;SDS011;10075;50.924;4.396;2023-02-04T11:26:32;7.83;;;5.73;;
19828;SDS011;10075;50.924;4.396;2023-02-04T11:29:08;8.33;;;5.30;;
19828;SDS011;10075;50.924;4.396;2023-02-04T11:31:58;7.10;;;4.70;;
19828;SDS011;10075;50.924;4.396;2023-02-04T11:37:12;5.88;;;4.75;;
19828;SDS011;10075;50.924;4.396;2023-02-04T11:39:44;6.03;;;4.43;;
19828;SDS011;10075;50.924;4.396;2023-02-04T11:42:19;6.55;;;5.03;;
19828;SDS011;10075;50.924;4.396;2023-02-04T11:44:49;7.78;;;5.38;;
19828;SDS011;10075;50.924;4.396;2023-02-04T11:47:18;5.90;;;5.07;;
19828;SDS011;10075;50.924;4.396;2023-02-04T11:49:45;7.30;;;5.70;;
19828;SDS011;10075;50.924;4.396;2023-02-04T11:52:19;7.40;;;5.53;;
19828;SDS011;10075;50.924;4.396;2023-02-04T11:54:51;6.83;;;5.13;;
19828;SDS011;10075;50.924;4.396;2023-02-04T11:57:21;5.85;;;5.00;;
19828;SDS011;10075;50.924;4.396;2023-02-04T11:59:48;7.53;;;5.10;;
19828;SDS011;10075;50.924;4.396;2023-02-04T12:02:15;7.23;;;5.50;;
19828;SDS011;10075;50.924;4.396;2023-02-04T12:04:54;7.37;;;5.77;;
19828;SDS011;10075;50.924;4.396;2023-02-04T12:07:23;7.72;;;6.07;;
19828;SDS011;10075;50.924;4.396;2023-02-04T12:09:52;7.43;;;5.80;;
19828;SDS011;10075;50.924;4.396;2023-02-04T12:12:25;8.97;;;6.00;;
19828;SDS011;10075;50.924;4.396;2023-02-04T12:14:57;9.37;;;6.17;;
19828;SDS011;10075;50.924;4.396;2023-02-04T12:17:28;8.73;;;6.40;;
19828;SDS011;10075;50.924;4.396;2023-02-04T12:19:55;8.47;;;6.70;;
19828;SDS011;10075;50.924;4.396;2023-02-04T12:22:22;14.53;;;8.80;;
19828;SDS011;10075;50.924;4.396;2023-02-04T12:24:49;13.77;;;9.20;;
19828;SDS011;10075;50.924;4.396;2023-02-04T12:27:17;13.70;;;9.47;;
19828;SDS011;10075;50.924;4.396;2023-02-04T12:29:46;11.23;;;8.47;;
19828;SDS011;10075;50.924;4.396;2023-02-04T12:32:13;16.20;;;11.00;;
19828;SDS011;10075;50.924;4.396;2023-02-04T12:34:40;11.87;;;8.60;;
19828;SDS011;10075;50.924;4.396;2023-02-04T12:37:07;12.07;;;8.97;;
19828;SDS011;10075;50.924;4.396;2023-02-04T12:39:34;15.97;;;10.20;;
19828;SDS011;10075;50.924;4.396;2023-02-04T12:42:01;16.40;;;9.47;;
19828;SDS011;10075;50.924;4.396;2023-02-04T12:44:29;17.93;;;10.20;;
19828;SDS011;10075;50.924;4.396;2023-02-04T12:46:57;17.07;;;11.10;;
19828;SDS011;10075;50.924;4.396;2023-02-04T12:49:24;16.87;;;10.80;;
19828;SDS011;10075;50.924;4.396;2023-02-04T12:51:51;18.77;;;10.90;;
19828;SDS011;10075;50.924;4.396;2023-02-04T12:54:22;16.83;;;11.77;;
19828;SDS011;10075;50.924;4.396;2023-02-04T12:56:49;22.00;;;13.30;;
19828;SDS011;10075;50.924;4.396;2023-02-04T12:59:17;19.67;;;12.47;;
19828;SDS011;10075;50.924;4.396;2023-02-04T13:01:44;21.37;;;14.30;;
19828;SDS011;10075;50.924;4.396;2023-02-04T13:04:12;22.77;;;13.93;;
19828;SDS011;10075;50.924;4.396;2023-02-04T13:06:39;21.93;;;14.40;;
19828;SDS011;10075;50.924;4.396;2023-02-04T13:09:06;16.63;;;11.57;;
19828;SDS011;10075;50.924;4.396;2023-02-04T13:11:33;18.93;;;12.87;;
19828;SDS011;10075;50.924;4.396;2023-02-04T13:14:00;19.87;;;12.80;;
19828;SDS011;10075;50.924;4.396;2023-02-04T13:16:27;22.23;;;13.80;;
19828;SDS011;10075;50.924;4.396;2023-02-04T13:18:54;19.63;;;12.67;;
19828;SDS011;10075;50.924;4.396;2023-02-04T13:21:23;19.13;;;11.90;;
19828;SDS011;10075;50.924;4.396;2023-02-04T13:23:50;24.63;;;13.33;;
19828;SDS011;10075;50.924;4.396;2023-02-04T13:26:17;20.03;;;12.23;;
19828;SDS011;10075;50.924;4.396;2023-02-04T13:28:44;17.77;;;10.60;;
19828;SDS011;10075;50.924;4.396;2023-02-04T13:31:11;20.80;;;11.93;;
19828;SDS011;10075;50.924;4.396;2023-02-04T13:33:37;19.60;;;11.70;;
19828;SDS011;10075;50.924;4.396;2023-02-04T13:36:05;22.53;;;11.70;;
19828;SDS011;10075;50.924;4.396;2023-02-04T13:38:33;21.37;;;11.60;;
19828;SDS011;10075;50.924;4.396;2023-02-04T13:41:01;21.23;;;12.87;;
19828;SDS011;10075;50.924;4.396;2023-02-04T13:43:28;23.87;;;12.87;;
19828;SDS011;10075;50.924;4.396;2023-02-04T13:45:55;21.17;;;11.53;;
19828;SDS011;10075;50.924;4.396;2023-02-04T13:48:22;19.07;;;11.93;;
19828;SDS011;10075;50.924;4.396;2023-02-04T13:50:49;19.60;;;11.87;;
19828;SDS011;10075;50.924;4.396;2023-02-04T13:53:16;21.37;;;13.37;;
19828;SDS011;10075;50.924;4.396;2023-02-04T13:55:44;19.87;;;11.60;;
19828;SDS011;10075;50.924;4.396;2023-02-04T13:58:12;20.87;;;12.20;;
19828;SDS011;10075;50.924;4.396;2023-02-04T14:00:39;23.42;;;12.88;;
19828;SDS011;10075;50.924;4.396;2023-02-04T14:03:06;19.77;;;11.73;;
19828;SDS011;10075;50.924;4.396;2023-02-04T14:05:33;17.73;;;10.65;;
19828;SDS011;10075;50.924;4.396;2023-02-04T14:08:00;21.87;;;11.53;;
19828;SDS011;10075;50.924;4.396;2023-02-04T14:10:27;19.73;;;13.60;;
19828;SDS011;10075;50.924;4.396;2023-02-04T14:12:55;20.07;;;12.13;;
19828;SDS011;10075;50.924;4.396;2023-02-04T14:15:22;19.17;;;10.57;;
19828;SDS011;10075;50.924;4.396;2023-02-04T14:17:49;17.87;;;10.67;;
19828;SDS011;10075;50.924;4.396;2023-02-04T14:20:17;18.70;;;10.93;;
19828;SDS011;10075;50.924;4.396;2023-02-04T14:22:44;20.33;;;10.52;;
19828;SDS011;10075;50.924;4.396;2023-02-04T14:25:11;19.57;;;10.97;;
19828;SDS011;10075;50.924;4.396;2023-02-04T14:27:38;18.73;;;9.90;;
19828;SDS011;10075;50.924;4.396;2023-02-04T14:30:08;21.07;;;12.07;;
19828;SDS011;10075;50.924;4.396;2023-02-04T14:32:41;15.75;;;10.75;;